Main page
METAR-TAF:

METAR-TAF

Airports :

Scatsta Airport

Scatsta, Shetland, Scotland

latitude: 60-26N, longitude: 001-18W, elevation: 22 m

Current weather observation

The report was made 34 minutes ago, at 20:50 UTC
Wind 11 kt from the South/Southwest
Temperature 11°C
Humidity 94%
Pressure 1016 hPa
Visibility: 8000 m

METAR: EGPM 202050Z AUTO 20011KT 8000 OVC007/// 11/10 Q1016

Time: 22:24 (21:24 UTC)

Forecast

The report was made 13 hours and 20 minutes ago, at 08:04 UTC
Forecast valid from 20 at 09 UTC to 20 at 18 UTC
Wind 14 kt from the South/Southwest
Visibility 10 km or more
Few clouds at a height of 800 ft
Broken clouds at a height of 3000 ft
Probability 40% :
Temporary
from 20 at 09 UTC to 20 at 12 UTC
Visibility: 6000 m
light rain

TAF: EGPM 200804Z 2009/2018 20014KT 9999 FEW008 BKN030 PROB40 TEMPO 2009/2012 6000 -RA

Weather observations and forecasts of more than 4000 airports (METAR and TAF reports).

The available stations are represented by yellow and red dots on the map.

Hover mouse over dot to see the name of the station.

Then click to see weather observations and forecasts.

To change the map : click on the green buttons with a black cross to zoom in, on the green button with a dash to zoom out, or on the green arrows for adjacent maps.


METAR-TAF: